createdAt,value
2018-01-30T00:00:59.186Z,9.47
2018-01-30T00:03:26.682Z,8.47
2018-01-30T00:05:54.202Z,9.30
2018-01-30T00:08:21.699Z,8.73
2018-01-30T00:10:49.230Z,8.23
2018-01-30T00:13:17.495Z,8.40
2018-01-30T00:15:45.801Z,8.10
2018-01-30T00:18:14.075Z,7.97
2018-01-30T00:20:41.598Z,8.63
2018-01-30T00:23:09.099Z,8.90
2018-01-30T00:25:36.642Z,9.10
2018-01-30T00:28:04.149Z,8.20
2018-01-30T00:30:31.654Z,7.33
2018-01-30T00:32:59.950Z,7.50
2018-01-30T00:35:28.218Z,7.67
2018-01-30T00:37:55.742Z,8.83
2018-01-30T00:40:23.247Z,7.87
2018-01-30T00:42:50.791Z,7.50
2018-01-30T00:45:18.314Z,8.23
2018-01-30T00:47:46.601Z,9.30
2018-01-30T00:50:14.902Z,8.20
2018-01-30T00:52:43.199Z,8.10
2018-01-30T00:55:10.735Z,8.90
2018-01-30T00:57:38.259Z,8.43
2018-01-30T01:00:05.762Z,7.77
2018-01-30T01:02:33.281Z,7.37
2018-01-30T01:05:00.821Z,7.20
2018-01-30T01:07:28.323Z,7.20
2018-01-30T01:09:55.842Z,8.20
2018-01-30T01:12:23.339Z,6.77
2018-01-30T01:14:50.866Z,7.43
2018-01-30T01:17:18.373Z,6.87
2018-01-30T01:19:45.906Z,7.13
2018-01-30T01:22:13.410Z,7.50
2018-01-30T01:24:40.938Z,6.23
2018-01-30T01:27:08.447Z,7.87
2018-01-30T01:29:35.991Z,7.20
2018-01-30T01:32:03.499Z,6.50
2018-01-30T01:34:31.036Z,6.37
2018-01-30T01:36:58.554Z,6.10
2018-01-30T01:39:26.055Z,6.53
2018-01-30T01:41:53.580Z,5.63
2018-01-30T01:44:21.088Z,6.07
2018-01-30T01:46:49.389Z,7.83
2018-01-30T01:49:16.900Z,6.33
2018-01-30T01:51:44.442Z,5.83
2018-01-30T01:54:11.950Z,6.27
2018-01-30T01:56:39.462Z,6.23
2018-01-30T01:59:07.755Z,5.80
2018-01-30T02:01:35.306Z,5.80
2018-01-30T02:04:03.570Z,6.57
2018-01-30T02:06:31.075Z,6.90
2018-01-30T02:08:59.382Z,6.70
2018-01-30T02:11:26.946Z,6.60
2018-01-30T02:13:54.487Z,6.67
2018-01-30T02:16:22.023Z,6.30
2018-01-30T02:18:49.568Z,6.83
2018-01-30T02:21:17.974Z,6.20
2018-01-30T02:23:45.483Z,7.00
2018-01-30T02:26:13.031Z,7.10
2018-01-30T02:28:40.538Z,6.90
2018-01-30T02:31:08.083Z,9.47
2018-01-30T02:33:35.593Z,9.20
2018-01-30T02:36:03.864Z,9.27
2018-01-30T02:38:31.403Z,9.50
2018-01-30T02:40:58.972Z,10.00
2018-01-30T02:43:26.511Z,10.07
2018-01-30T02:45:54.147Z,12.07
2018-01-30T02:48:21.656Z,10.40
2018-01-30T02:50:49.930Z,12.40
2018-01-30T02:53:18.234Z,11.13
2018-01-30T02:55:46.527Z,11.23
2018-01-30T02:58:14.071Z,11.77
2018-01-30T03:00:41.579Z,10.70
2018-01-30T03:03:09.123Z,10.93
2018-01-30T03:05:36.631Z,10.90
2018-01-30T03:08:04.183Z,12.03
2018-01-30T03:10:32.503Z,11.50
2018-01-30T03:13:00.017Z,11.20
2018-01-30T03:15:27.547Z,11.67
2018-01-30T03:17:55.054Z,12.57
2018-01-30T03:20:22.574Z,11.93
2018-01-30T03:22:50.078Z,13.80
2018-01-30T03:25:17.619Z,12.90
2018-01-30T03:27:45.156Z,12.83
2018-01-30T03:30:13.426Z,12.30
2018-01-30T03:32:40.962Z,12.03
2018-01-30T03:35:08.463Z,12.20
2018-01-30T03:37:35.998Z,12.30
2018-01-30T03:40:03.583Z,13.40
2018-01-30T03:42:31.110Z,12.93
2018-01-30T03:44:59.382Z,14.10
2018-01-30T03:47:26.906Z,11.43
2018-01-30T03:49:54.431Z,12.87
2018-01-30T03:52:21.958Z,11.60
2018-01-30T03:54:49.474Z,13.90
2018-01-30T03:57:17.009Z,12.60
2018-01-30T03:59:44.522Z,11.40
2018-01-30T04:02:12.796Z,11.40
2018-01-30T04:04:40.322Z,13.90
2018-01-30T04:07:07.828Z,12.77
2018-01-30T04:09:35.372Z,15.53
2018-01-30T04:12:02.898Z,12.47
2018-01-30T04:14:31.190Z,12.07
2018-01-30T04:16:59.486Z,13.87
2018-01-30T04:19:26.995Z,12.37
2018-01-30T04:21:54.535Z,13.23
2018-01-30T04:24:22.055Z,14.70
2018-01-30T04:26:49.582Z,12.83
2018-01-30T04:29:17.087Z,13.33
2018-01-30T04:31:44.628Z,13.67
2018-01-30T04:34:12.131Z,14.57
2018-01-30T04:36:40.398Z,15.33
2018-01-30T04:39:07.926Z,14.43
2018-01-30T04:41:35.437Z,15.10
2018-01-30T04:44:02.962Z,16.30
2018-01-30T04:46:30.472Z,15.43
2018-01-30T04:48:57.999Z,17.83
2018-01-30T04:51:25.598Z,14.63
2018-01-30T04:53:53.893Z,14.53
2018-01-30T04:56:22.163Z,14.27
2018-01-30T04:58:49.686Z,16.40
2018-01-30T05:01:17.219Z,16.27
2018-01-30T05:03:45.490Z,17.00
2018-01-30T05:06:13.025Z,15.13
2018-01-30T05:08:40.531Z,15.73
2018-01-30T05:11:08.090Z,15.53
2018-01-30T05:13:35.610Z,15.20
2018-01-30T05:16:03.134Z,13.33
2018-01-30T05:18:30.662Z,13.77
2018-01-30T05:20:58.187Z,13.20
2018-01-30T05:23:25.705Z,13.83
2018-01-30T05:25:53.234Z,14.07
2018-01-30T05:28:20.756Z,14.03
2018-01-30T05:30:48.282Z,15.70
2018-01-30T05:33:15.844Z,16.27
2018-01-30T05:35:43.347Z,16.67
2018-01-30T05:38:10.854Z,11.63
2018-01-30T05:40:38.391Z,12.77
2018-01-30T05:43:05.886Z,15.20
2018-01-30T05:45:33.436Z,73.20
2018-01-30T05:48:00.942Z,22.53
2018-01-30T05:50:28.478Z,26.70
2018-01-30T05:52:55.991Z,13.10
2018-01-30T05:55:23.492Z,14.40
2018-01-30T05:57:51.026Z,17.83
2018-01-30T06:00:18.521Z,18.47
2018-01-30T06:02:46.051Z,15.27
2018-01-30T06:05:13.562Z,14.07
2018-01-30T06:07:41.129Z,14.90
2018-01-30T06:10:10.146Z,31.53
2018-01-30T06:12:37.670Z,18.27
2018-01-30T06:15:05.179Z,16.30
2018-01-30T06:17:32.705Z,14.40
2018-01-30T06:20:00.214Z,15.30
2018-01-30T06:22:27.762Z,11.20
2018-01-30T06:24:55.258Z,13.47
2018-01-30T06:27:22.754Z,14.70
2018-01-30T06:29:51.066Z,13.83
2018-01-30T06:32:18.570Z,12.33
2018-01-30T06:34:46.118Z,16.00
2018-01-30T06:37:13.664Z,15.10
2018-01-30T06:39:41.959Z,14.10
2018-01-30T06:42:10.223Z,14.63
2018-01-30T06:44:37.756Z,15.20
2018-01-30T06:47:05.266Z,14.77
2018-01-30T06:49:32.805Z,14.93
2018-01-30T06:52:00.310Z,16.50
2018-01-30T06:54:27.841Z,17.17
2018-01-30T06:56:55.370Z,16.40
2018-01-30T06:59:23.660Z,17.77
2018-01-30T07:01:51.950Z,21.80
2018-01-30T07:04:20.218Z,18.80
2018-01-30T07:06:47.723Z,17.27
2018-01-30T07:09:15.255Z,15.67
2018-01-30T07:11:42.782Z,14.33
2018-01-30T07:14:10.310Z,15.70
2018-01-30T07:16:37.821Z,16.03
2018-01-30T07:19:05.351Z,16.10
2018-01-30T07:21:32.850Z,18.00
2018-01-30T07:24:00.396Z,16.80
2018-01-30T07:26:27.910Z,17.17
2018-01-30T07:28:55.411Z,18.03
2018-01-30T07:31:22.935Z,16.73
2018-01-30T07:33:50.448Z,16.77
2018-01-30T07:36:17.982Z,15.80
2018-01-30T07:38:45.514Z,16.17
2018-01-30T07:41:13.019Z,15.90
2018-01-30T07:43:41.311Z,18.67
2018-01-30T07:46:08.807Z,18.60
2018-01-30T07:48:36.311Z,18.57
2018-01-30T07:51:03.842Z,19.80
2018-01-30T07:53:31.338Z,19.23
2018-01-30T07:55:58.863Z,17.63
2018-01-30T07:58:26.361Z,17.90
2018-01-30T08:00:53.887Z,20.00
2018-01-30T08:03:22.179Z,16.57
2018-01-30T08:05:50.455Z,16.30
2018-01-30T08:08:17.983Z,17.60
2018-01-30T08:10:45.479Z,18.33
2018-01-30T08:13:12.998Z,17.67
2018-01-30T08:15:40.540Z,19.83
2018-01-30T08:18:08.051Z,17.63
2018-01-30T08:20:35.611Z,19.00
2018-01-30T08:23:03.121Z,19.37
2018-01-30T08:25:30.622Z,21.73
2018-01-30T08:27:58.146Z,21.70
2018-01-30T08:30:25.642Z,20.10
2018-01-30T08:32:53.171Z,22.60
2018-01-30T08:35:20.676Z,20.97
2018-01-30T08:37:48.195Z,22.37
2018-01-30T08:40:15.721Z,22.50
2018-01-30T08:42:43.273Z,19.13
2018-01-30T08:45:10.784Z,19.17
2018-01-30T08:47:38.286Z,19.90
2018-01-30T08:50:06.582Z,21.30
2018-01-30T08:52:34.083Z,20.30
2018-01-30T08:55:01.611Z,22.53
2018-01-30T08:57:29.127Z,20.63
2018-01-30T08:59:56.661Z,20.70
2018-01-30T09:02:24.930Z,20.37
2018-01-30T09:04:52.455Z,20.37
2018-01-30T09:07:19.963Z,18.30
2018-01-30T09:09:47.502Z,17.43
2018-01-30T09:12:15.022Z,16.53
2018-01-30T09:14:43.318Z,17.10
2018-01-30T09:17:11.583Z,16.40
2018-01-30T09:19:39.124Z,16.80
2018-01-30T09:22:06.637Z,16.33
2018-01-30T09:24:34.140Z,16.70
2018-01-30T09:27:01.659Z,16.10
2018-01-30T09:29:29.159Z,18.37
2018-01-30T09:31:57.463Z,15.83
2018-01-30T09:34:25.739Z,14.93
2018-01-30T09:36:54.034Z,18.10
2018-01-30T09:39:22.311Z,17.20
2018-01-30T09:41:50.613Z,17.57
2018-01-30T09:44:18.875Z,15.50
2018-01-30T09:46:46.376Z,16.07
2018-01-30T09:49:14.672Z,18.43
2018-01-30T09:51:42.179Z,15.07
2018-01-30T09:54:09.703Z,18.40
2018-01-30T09:56:38.002Z,18.47
2018-01-30T09:59:06.303Z,18.27
2018-01-30T10:01:33.840Z,18.83
2018-01-30T10:04:01.366Z,19.33
2018-01-30T10:06:28.857Z,20.43
2018-01-30T10:08:56.381Z,19.63
2018-01-30T10:11:23.882Z,19.00
2018-01-30T10:13:51.415Z,19.23
2018-01-30T10:16:19.706Z,19.03
2018-01-30T10:18:47.975Z,18.50
2018-01-30T10:21:15.514Z,17.47
2018-01-30T10:23:43.014Z,16.87
2018-01-30T10:26:10.550Z,17.43
2018-01-30T10:28:38.055Z,15.40
2018-01-30T10:31:05.590Z,15.20
2018-01-30T10:33:33.098Z,15.57
2018-01-30T10:36:00.626Z,14.87
2018-01-30T10:38:28.135Z,16.10
2018-01-30T10:40:55.661Z,15.67
2018-01-30T10:43:23.189Z,14.50
2018-01-30T10:45:51.490Z,15.10
2018-01-30T10:48:19.750Z,16.37
2018-01-30T10:50:47.294Z,14.77
2018-01-30T10:53:14.826Z,16.20
2018-01-30T10:55:43.098Z,16.87
2018-01-30T10:58:10.606Z,15.23
2018-01-30T11:00:38.137Z,16.27
2018-01-30T11:03:05.644Z,15.97
2018-01-30T11:05:33.173Z,17.37
2018-01-30T11:08:00.711Z,15.47
2018-01-30T11:10:28.238Z,13.93
2018-01-30T11:12:56.534Z,17.87
2018-01-30T11:15:24.035Z,15.77
2018-01-30T11:17:51.578Z,13.60
2018-01-30T11:20:19.094Z,14.97
2018-01-30T11:22:46.608Z,13.87
2018-01-30T11:25:14.926Z,12.43
2018-01-30T11:27:42.444Z,14.30
2018-01-30T11:30:09.974Z,12.27
2018-01-30T11:32:37.494Z,14.67
2018-01-30T11:35:05.038Z,13.10
2018-01-30T11:37:32.542Z,13.53
2018-01-30T11:40:00.052Z,10.90
2018-01-30T11:42:27.578Z,12.57
2018-01-30T11:44:55.083Z,13.00
2018-01-30T11:47:22.615Z,13.20
2018-01-30T11:49:50.158Z,11.50
2018-01-30T11:52:17.695Z,10.60
2018-01-30T11:54:45.194Z,11.50
2018-01-30T11:57:12.698Z,12.83
2018-01-30T11:59:40.227Z,11.03
2018-01-30T12:02:07.726Z,12.30
2018-01-30T12:04:35.253Z,11.40
2018-01-30T12:07:02.778Z,12.90
2018-01-30T12:09:30.279Z,12.93
2018-01-30T12:11:58.570Z,11.67
2018-01-30T12:14:26.077Z,13.90
2018-01-30T12:16:53.605Z,10.30
2018-01-30T12:19:21.131Z,11.80
2018-01-30T12:21:48.710Z,11.17
2018-01-30T12:24:16.219Z,11.50
2018-01-30T12:26:44.485Z,9.67
2018-01-30T12:29:12.010Z,10.53
2018-01-30T12:31:39.506Z,12.00
2018-01-30T12:34:07.034Z,10.57
2018-01-30T12:36:35.320Z,13.87
2018-01-30T12:39:03.618Z,10.27
2018-01-30T12:41:31.882Z,10.07
2018-01-30T12:43:59.413Z,10.30
2018-01-30T12:46:26.919Z,111.90
2018-01-30T12:48:54.466Z,77.70
2018-01-30T12:51:21.987Z,12.20
2018-01-30T12:53:49.520Z,12.43
2018-01-30T12:56:17.032Z,10.13
2018-01-30T12:58:44.527Z,8.80
2018-01-30T13:01:12.087Z,7.87
2018-01-30T13:03:39.616Z,8.70
2018-01-30T13:06:07.130Z,8.00
2018-01-30T13:08:34.658Z,7.43
2018-01-30T13:11:02.229Z,7.33
2018-01-30T13:13:29.957Z,8.03
2018-01-30T13:15:59.051Z,7.97
2018-01-30T13:18:34.834Z,8.20
2018-01-30T13:21:03.876Z,7.83
2018-01-30T13:23:35.158Z,7.77
2018-01-30T13:26:02.865Z,7.40
2018-01-30T13:28:34.449Z,7.23
2018-01-30T13:31:03.754Z,8.30
2018-01-30T13:33:34.610Z,8.13
2018-01-30T13:36:04.537Z,6.70
2018-01-30T13:38:37.425Z,8.10
2018-01-30T13:41:12.737Z,6.97
2018-01-30T13:43:46.038Z,7.77
2018-01-30T13:46:17.816Z,7.50
2018-01-30T13:48:52.914Z,5.87
2018-01-30T13:51:20.871Z,5.90
2018-01-30T13:53:53.616Z,5.87
2018-01-30T13:56:28.174Z,4.13
2018-01-30T13:58:59.417Z,4.50
2018-01-30T14:01:31.080Z,4.97
2018-01-30T14:03:59.640Z,5.10
2018-01-30T14:06:28.916Z,6.17
2018-01-30T14:09:00.923Z,5.87
2018-01-30T14:11:28.418Z,6.33
2018-01-30T14:13:59.345Z,5.73
2018-01-30T14:16:32.113Z,6.13
2018-01-30T14:19:03.669Z,6.40
2018-01-30T14:21:34.080Z,6.90
2018-01-30T14:24:01.719Z,6.10
2018-01-30T14:26:32.493Z,5.63
2018-01-30T14:29:00.183Z,7.40
2018-01-30T14:31:27.711Z,6.90
2018-01-30T14:33:55.228Z,6.73
2018-01-30T14:36:23.705Z,6.47
2018-01-30T14:38:51.220Z,7.27
2018-01-30T14:41:18.750Z,7.10
2018-01-30T14:43:46.248Z,7.63
2018-01-30T14:46:13.778Z,7.10
2018-01-30T14:48:50.861Z,7.40
2018-01-30T14:51:22.039Z,6.97
2018-01-30T14:54:00.466Z,6.77
2018-01-30T14:56:38.606Z,7.43
2018-01-30T15:02:01.021Z,6.60
2018-01-30T15:04:40.620Z,7.10
2018-01-30T15:07:10.107Z,7.17
2018-01-30T15:09:55.014Z,6.40
2018-01-30T15:12:29.462Z,5.17
2018-01-30T15:15:08.238Z,6.87
2018-01-30T15:17:52.540Z,5.70
2018-01-30T15:20:21.574Z,5.03
2018-01-30T15:22:56.986Z,5.77
2018-01-30T15:25:25.003Z,4.23
2018-01-30T15:28:03.839Z,5.60
2018-01-30T15:30:48.312Z,4.90
2018-01-30T15:33:21.305Z,4.50
2018-01-30T15:35:49.198Z,5.37
2018-01-30T15:38:16.705Z,5.30
2018-01-30T15:40:48.416Z,6.27
2018-01-30T15:43:15.926Z,6.17
2018-01-30T15:45:43.458Z,6.67
2018-01-30T15:48:11.726Z,5.93
2018-01-30T15:50:39.262Z,6.67
2018-01-30T15:53:08.373Z,6.23
2018-01-30T15:55:35.921Z,6.27
2018-01-30T15:58:03.427Z,6.50
2018-01-30T16:00:30.940Z,6.63
2018-01-30T16:02:58.511Z,6.17
2018-01-30T16:05:26.018Z,5.70
2018-01-30T16:07:53.552Z,6.30
2018-01-30T16:10:22.368Z,6.10
2018-01-30T16:12:49.911Z,6.47
2018-01-30T16:15:17.441Z,7.73
2018-01-30T16:17:48.934Z,6.93
2018-01-30T16:20:16.477Z,5.80
2018-01-30T16:22:43.989Z,5.90
2018-01-30T16:25:11.493Z,6.97
2018-01-30T16:27:39.049Z,7.07
2018-01-30T16:30:07.519Z,6.93
2018-01-30T16:32:35.076Z,7.10
2018-01-30T16:35:03.182Z,7.53
2018-01-30T16:37:30.708Z,6.80
2018-01-30T16:39:58.215Z,7.77
2018-01-30T16:42:25.748Z,7.17
2018-01-30T16:44:53.251Z,7.30
2018-01-30T16:47:20.815Z,12.07
2018-01-30T16:49:49.666Z,8.47
2018-01-30T16:52:19.131Z,8.40
2018-01-30T16:54:46.638Z,7.73
2018-01-30T16:57:14.177Z,7.20
2018-01-30T16:59:41.686Z,8.10
2018-01-30T17:02:10.935Z,7.63
2018-01-30T17:04:38.475Z,7.50
2018-01-30T17:07:06.923Z,8.33
2018-01-30T17:09:35.193Z,8.43
2018-01-30T17:12:03.495Z,8.10
2018-01-30T17:14:31.033Z,9.70
2018-01-30T17:16:59.333Z,12.00
2018-01-30T17:19:26.854Z,9.40
2018-01-30T17:21:55.162Z,8.67
2018-01-30T17:24:22.707Z,9.27
2018-01-30T17:26:50.268Z,7.50
2018-01-30T17:29:17.798Z,7.87
2018-01-30T17:31:45.919Z,8.40
2018-01-30T17:34:13.433Z,7.37
2018-01-30T17:36:41.730Z,9.43
2018-01-30T17:39:09.354Z,9.23
2018-01-30T17:41:37.705Z,7.63
2018-01-30T17:44:06.568Z,10.70
2018-01-30T17:46:34.094Z,9.20
2018-01-30T17:49:03.615Z,13.20
2018-01-30T17:51:31.986Z,8.27
2018-01-30T17:54:00.263Z,9.10
2018-01-30T17:56:27.786Z,8.20
2018-01-30T17:58:55.331Z,8.40
2018-01-30T18:01:22.871Z,7.40
2018-01-30T18:03:50.339Z,7.47
2018-01-30T18:06:17.878Z,6.87
2018-01-30T18:08:45.487Z,10.87
2018-01-30T18:11:14.376Z,7.10
2018-01-30T18:13:42.645Z,7.47
2018-01-30T18:16:10.160Z,8.00
2018-01-30T18:18:37.712Z,7.07
2018-01-30T18:21:07.052Z,8.00
2018-01-30T18:23:34.604Z,6.93
2018-01-30T18:26:02.172Z,7.23
2018-01-30T18:28:29.696Z,7.17
2018-01-30T18:30:57.257Z,6.27
2018-01-30T18:33:25.593Z,8.33
2018-01-30T18:35:54.781Z,6.97
2018-01-30T18:38:24.043Z,7.13
2018-01-30T18:40:51.591Z,7.37
2018-01-30T18:43:19.658Z,7.50
2018-01-30T18:45:47.186Z,7.10
2018-01-30T18:48:14.691Z,6.90
2018-01-30T18:50:42.677Z,7.40
2018-01-30T18:53:11.519Z,8.13
2018-01-30T18:55:39.057Z,6.80
2018-01-30T18:58:06.620Z,6.40
2018-01-30T19:00:34.966Z,7.20
2018-01-30T19:03:03.270Z,7.30
2018-01-30T19:05:31.066Z,6.97
2018-01-30T19:07:58.622Z,7.87
2018-01-30T19:10:26.991Z,7.10
2018-01-30T19:12:54.542Z,7.07
2018-01-30T19:15:22.044Z,8.00
2018-01-30T19:17:49.595Z,8.13
2018-01-30T19:20:21.666Z,6.90
2018-01-30T19:22:50.073Z,6.57
2018-01-30T19:25:17.583Z,5.90
2018-01-30T19:27:45.111Z,7.77
2018-01-30T19:30:12.642Z,7.53
2018-01-30T19:32:40.172Z,7.10
2018-01-30T19:35:08.425Z,5.53
2018-01-30T19:37:36.743Z,6.10
2018-01-30T19:40:05.057Z,5.50
2018-01-30T19:42:32.565Z,6.17
2018-01-30T19:45:00.875Z,6.97
2018-01-30T19:47:28.384Z,6.20
2018-01-30T19:49:56.811Z,6.33
2018-01-30T19:52:24.330Z,6.00
2018-01-30T19:54:53.504Z,5.47
2018-01-30T19:57:21.008Z,4.87
2018-01-30T19:59:48.518Z,5.47
2018-01-30T20:02:16.813Z,4.97
2018-01-30T20:04:44.342Z,8.30
2018-01-30T20:07:12.822Z,5.03
2018-01-30T20:09:40.293Z,4.43
2018-01-30T20:12:09.417Z,6.13
2018-01-30T20:14:36.918Z,5.43
2018-01-30T20:17:04.431Z,5.00
2018-01-30T20:19:33.586Z,4.70
2018-01-30T20:22:01.099Z,4.00
2018-01-30T20:24:28.634Z,4.30
2018-01-30T20:26:56.937Z,5.30
2018-01-30T20:29:24.442Z,5.03
2018-01-30T20:31:51.983Z,5.37
2018-01-30T20:34:19.492Z,5.33
2018-01-30T20:36:47.035Z,5.53
2018-01-30T20:39:15.330Z,6.53
2018-01-30T20:41:42.845Z,6.00
2018-01-30T20:44:10.396Z,4.83
2018-01-30T20:46:37.897Z,5.40
2018-01-30T20:49:05.402Z,5.97
2018-01-30T20:51:33.887Z,6.03
2018-01-30T20:54:01.391Z,4.93
2018-01-30T20:56:29.824Z,4.57
2018-01-30T20:58:58.203Z,5.77
2018-01-30T21:01:25.742Z,5.30
2018-01-30T21:03:54.039Z,5.00
2018-01-30T21:06:21.603Z,5.17
2018-01-30T21:08:50.090Z,5.60
2018-01-30T21:11:17.640Z,5.37
2018-01-30T21:13:47.947Z,5.37
2018-01-30T21:16:15.942Z,6.07
2018-01-30T21:18:44.212Z,5.77
2018-01-30T21:21:12.476Z,5.60
2018-01-30T21:23:39.998Z,5.90
2018-01-30T21:26:07.548Z,5.37
2018-01-30T21:28:35.068Z,6.30
2018-01-30T21:31:03.482Z,6.43
2018-01-30T21:33:30.982Z,5.90
2018-01-30T21:35:58.546Z,6.63
2018-01-30T21:38:26.054Z,6.33
2018-01-30T21:40:53.560Z,6.33
2018-01-30T21:43:21.907Z,6.20
2018-01-30T21:45:49.428Z,5.93
2018-01-30T21:48:17.047Z,6.30
2018-01-30T21:50:44.547Z,6.10
2018-01-30T21:53:12.094Z,7.17
2018-01-30T21:55:40.821Z,6.70
2018-01-30T21:58:08.324Z,7.10
2018-01-30T22:00:36.622Z,7.00
2018-01-30T22:03:04.148Z,6.23
2018-01-30T22:05:32.441Z,6.57
2018-01-30T22:07:59.992Z,7.00
2018-01-30T22:10:29.086Z,7.30
2018-01-30T22:12:57.444Z,6.03
2018-01-30T22:15:24.994Z,7.40
2018-01-30T22:17:52.495Z,7.37
2018-01-30T22:20:20.587Z,7.53
2018-01-30T22:22:48.102Z,7.63
2018-01-30T22:25:16.387Z,7.20
2018-01-30T22:27:44.680Z,6.60
2018-01-30T22:30:12.211Z,6.20
2018-01-30T22:32:40.492Z,6.77
2018-01-30T22:35:08.024Z,7.53
2018-01-30T22:37:35.542Z,7.97
2018-01-30T22:40:03.105Z,6.70
2018-01-30T22:42:30.838Z,7.23
2018-01-30T22:44:58.367Z,8.03
